CYEK

Arviat Airport

Arviat, Canada
METAR CYEK 201500Z 29006KT 10SM SKC M38/M43 A3041 RMK IC TR CI SLP302
Observed Flight Rules
Feb-20 @ 15:00 UTC (22 hours ago) Visual Flight Rules
Wind Visibility Clouds
290° at 6 knots 10 miles
  • Clear skies
Temperatures Readings
Current -38°C / -36°F
Dewpoint -43°C / -45°F
Humidity 59%
Altimeter 30.41" Hg
Pressure 1030.2 hPa
Elevation 10
METAR CYEK 201500Z 29006KT 10SM SKC M38/M43 A3041 RMK IC TR CI SLP302
Observed Flight Rules
Feb-20 @ 15:00 UTC
(22 hours ago)
VFR
Wind Visibility
290° at 6 knots 10 miles
Clouds
  • Clear skies
Temperature Dewpoint
-38°C / -36°F -43°C / -45°F
Humidity Altimeter Pressure
59% 30.41" Hg 1030.2 hPa